Time;durP1;ratioP1;P1;durP2;ratioP2;P2;SDS_P1;SDS_P2;PMS_P1;PMS_P2;Temp;Humidity;BMP_temperature;BMP_pressure;BME280_temperature;BME280_humidity;BME280_pressure;Samples;Min_cycle;Max_cycle;Signal;HPM_P1;HPM_P2
2023/06/13 00:01:05;;;;;;;3.53;2.30;;;29.90;99.90;;;;;;4938533;29;20217;-92
2023/06/13 00:03:39;;;;;;;3.90;2.20;;;29.70;99.90;;;;;;4937066;29;20223;-93
2023/06/13 00:06:13;;;;;;;2.47;2.00;;;30.00;99.90;;;;;;4936459;29;20268;-93
2023/06/13 00:08:44;;;;;;;2.72;1.80;;;30.10;99.90;;;;;;4944274;29;20276;-92
2023/06/13 00:11:17;;;;;;;2.70;1.95;;;30.00;99.90;;;;;;4930052;29;20252;-92
2023/06/13 00:13:51;;;;;;;3.17;2.00;;;30.00;99.90;;;;;;4944192;29;20208;-93
2023/06/13 00:16:26;;;;;;;2.60;2.13;;;29.90;99.90;;;;;;4928103;29;20654;-92
2023/06/13 00:18:58;;;;;;;3.88;2.30;;;29.80;99.90;;;;;;4938425;28;20248;-93
2023/06/13 00:21:29;;;;;;;3.80;2.20;;;29.80;99.90;;;;;;4939328;29;20252;-91
2023/06/13 00:24:01;;;;;;;7.93;2.40;;;29.60;99.90;;;;;;4939687;29;20562;-91
2023/06/13 00:26:34;;;;;;;3.30;2.15;;;29.50;99.90;;;;;;4940504;29;20208;-92
2023/06/13 00:29:05;;;;;;;3.10;1.77;;;29.30;99.90;;;;;;4938696;29;20291;-93
2023/06/13 00:31:38;;;;;;;5.15;2.35;;;29.20;99.90;;;;;;4925550;29;20605;-92
2023/06/13 00:34:10;;;;;;;2.38;1.73;;;29.10;99.90;;;;;;4955772;29;20228;-92
2023/06/13 00:36:45;;;;;;;4.25;1.95;;;29.20;99.90;;;;;;4940147;29;20199;-95
2023/06/13 00:39:16;;;;;;;3.63;2.17;;;29.30;99.90;;;;;;4929042;29;20217;-94
2023/06/13 00:41:48;;;;;;;4.40;2.00;;;29.40;99.90;;;;;;4957153;29;20241;-93
2023/06/13 00:44:19;;;;;;;3.38;1.80;;;29.60;99.90;;;;;;4956865;28;20219;-94
2023/06/13 00:46:53;;;;;;;2.45;1.90;;;29.50;99.90;;;;;;4957468;28;20235;-93
2023/06/13 00:49:25;;;;;;;3.00;1.98;;;29.70;99.90;;;;;;4937470;28;20207;-93
2023/06/13 00:52:01;;;;;;;3.25;1.90;;;30.20;99.90;;;;;;4935840;29;20219;-94
2023/06/13 00:54:36;;;;;;;2.45;1.92;;;30.60;99.90;;;;;;4936303;29;20212;-94
2023/06/13 00:57:09;;;;;;;3.85;2.10;;;31.20;99.90;;;;;;4940173;29;20215;-92
2023/06/13 00:59:42;;;;;;;2.13;1.70;;;31.60;99.90;;;;;;4945653;29;20581;-92
2023/06/13 01:02:20;;;;;;;3.97;1.80;;;31.60;99.90;;;;;;4938128;29;20231;-92
2023/06/13 01:04:53;;;;;;;3.22;1.85;;;31.30;99.90;;;;;;4937833;29;20212;-94
2023/06/13 01:07:29;;;;;;;2.28;1.80;;;31.40;99.90;;;;;;4954142;29;20266;-93
2023/06/13 01:10:01;;;;;;;3.28;2.00;;;31.70;99.90;;;;;;4955531;28;20624;-92
2023/06/13 01:12:40;;;;;;;2.65;1.90;;;32.40;99.90;;;;;;4956105;28;20212;-93
2023/06/13 01:15:13;;;;;;;3.72;1.85;;;32.70;99.90;;;;;;4956183;28;20303;-92
2023/06/13 01:17:57;;;;;;;3.03;1.92;;;32.70;99.90;;;;;;4950101;28;20204;-93
2023/06/13 01:20:30;;;;;;;3.47;1.88;;;32.90;98.80;;;;;;4937547;29;20275;-92
2023/06/13 01:23:28;;;;;;;2.50;2.00;;;32.80;98.50;;;;;;4930953;29;20253;-92
2023/06/13 01:26:06;;;;;;;2.05;1.70;;;33.00;97.60;;;;;;4938458;29;20661;-93
2023/06/13 01:28:40;;;;;;;3.90;1.90;;;32.90;98.20;;;;;;4933575;29;20223;-93
2023/06/13 01:31:15;;;;;;;6.50;2.13;;;32.80;97.30;;;;;;4940904;29;20228;-94
2023/06/13 01:33:48;;;;;;;3.38;1.98;;;32.70;97.10;;;;;;4951669;29;20295;-94
2023/06/13 01:36:19;;;;;;;4.82;2.33;;;32.90;97.20;;;;;;4960086;28;20235;-93
2023/06/13 01:38:52;;;;;;;3.92;2.20;;;33.20;97.10;;;;;;4921585;29;20301;-93
2023/06/13 01:41:24;;;;;;;1.85;1.60;;;32.80;96.90;;;;;;4938674;29;20220;-93
2023/06/13 01:43:59;;;;;;;3.78;2.15;;;32.70;97.10;;;;;;4940698;29;20240;-95
2023/06/13 01:46:33;;;;;;;2.75;2.10;;;32.20;97.00;;;;;;4942243;29;20244;-92
2023/06/13 01:49:16;;;;;;;4.95;2.20;;;31.80;97.80;;;;;;4927064;29;20213;-93
2023/06/13 01:52:02;;;;;;;3.72;2.35;;;31.30;98.50;;;;;;4938589;29;20315;-94
2023/06/13 01:54:38;;;;;;;3.78;2.38;;;31.10;99.10;;;;;;4941332;29;20271;-93
2023/06/13 01:57:11;;;;;;;2.72;2.35;;;31.00;99.00;;;;;;4941624;29;20212;-94
2023/06/13 01:59:49;;;;;;;4.93;2.35;;;30.70;99.00;;;;;;4940961;29;20208;-93
2023/06/13 02:02:21;;;;;;;2.85;2.00;;;30.40;99.90;;;;;;4935021;29;20235;-93
2023/06/13 02:04:53;;;;;;;3.00;1.95;;;29.80;99.90;;;;;;4940383;29;20201;-94
2023/06/13 02:07:27;;;;;;;5.97;2.20;;;29.50;99.90;;;;;;4940660;29;20588;-94
2023/06/13 02:09:58;;;;;;;7.80;2.47;;;29.20;99.90;;;;;;4955682;29;20242;-94
2023/06/13 02:12:30;;;;;;;3.88;2.13;;;28.90;99.90;;;;;;4939823;29;20256;-93
2023/06/13 02:15:04;;;;;;;4.63;2.13;;;28.70;99.90;;;;;;4940095;29;20223;-93
2023/06/13 02:17:36;;;;;;;4.78;2.13;;;28.70;99.90;;;;;;4943354;29;20306;-93
2023/06/13 02:20:08;;;;;;;4.43;2.33;;;29.00;99.90;;;;;;4939895;29;20287;-95
2023/06/13 02:22:39;;;;;;;3.90;2.42;;;29.00;99.90;;;;;;4942980;29;20259;-94
2023/06/13 02:25:14;;;;;;;4.20;2.00;;;28.80;99.90;;;;;;4942369;29;20209;-93
2023/06/13 02:27:45;;;;;;;4.28;2.10;;;28.50;99.90;;;;;;4921860;29;20734;-94
2023/06/13 02:30:19;;;;;;;3.88;2.20;;;28.20;99.90;;;;;;4920474;29;20573;-93
2023/06/13 02:32:50;;;;;;;3.05;2.00;;;27.90;99.90;;;;;;4925077;29;20216;-94
2023/06/13 02:35:23;;;;;;;4.35;2.47;;;27.70;99.90;;;;;;4942141;29;20319;-94
2023/06/13 02:37:56;;;;;;;4.27;2.33;;;27.40;99.90;;;;;;4942045;29;20232;-95
2023/06/13 02:40:29;;;;;;;4.70;2.60;;;27.10;99.90;;;;;;4943961;29;20582;-93
2023/06/13 02:43:02;;;;;;;2.40;2.20;;;26.90;99.90;;;;;;4944041;29;20612;-94
2023/06/13 02:45:37;;;;;;;4.23;2.03;;;26.80;99.90;;;;;;4924412;29;20219;-94
2023/06/13 02:48:10;;;;;;;3.30;2.20;;;26.70;99.90;;;;;;4937958;29;20224;-93
2023/06/13 02:50:43;;;;;;;5.37;2.40;;;26.50;99.90;;;;;;4946361;28;20335;-94
2023/06/13 02:53:15;;;;;;;4.13;2.13;;;26.30;99.90;;;;;;4955775;29;20379;-93
2023/06/13 02:55:48;;;;;;;4.73;2.20;;;26.20;99.90;;;;;;4946067;29;20275;-93
2023/06/13 02:58:23;;;;;;;3.40;2.07;;;26.20;99.90;;;;;;4943544;29;20212;-94
2023/06/13 03:00:58;;;;;;;4.30;2.17;;;26.00;99.90;;;;;;4940831;29;20670;-93
2023/06/13 03:03:32;;;;;;;4.33;1.90;;;25.90;99.90;;;;;;4942287;29;20231;-95
2023/06/13 03:06:05;;;;;;;3.57;2.07;;;25.80;99.90;;;;;;4932949;29;20670;-94
2023/06/13 03:08:40;;;;;;;5.40;2.27;;;25.80;99.90;;;;;;4922860;29;20280;-93
2023/06/13 03:11:13;;;;;;;6.13;3.57;;;25.70;99.90;;;;;;4937441;29;20249;-94
2023/06/13 03:13:45;;;;;;;4.17;2.13;;;25.50;99.90;;;;;;4945283;28;20211;-95
2023/06/13 03:16:24;;;;;;;6.03;2.33;;;25.20;99.90;;;;;;4600960;28;10000348;-93
2023/06/13 03:18:59;;;;;;;3.20;1.90;;;25.10;99.90;;;;;;4936631;29;20209;-92
2023/06/13 03:21:33;;;;;;;3.90;2.30;;;25.00;99.90;;;;;;4933191;29;20287;-94
2023/06/13 03:24:06;;;;;;;7.33;2.50;;;24.80;99.90;;;;;;4942740;29;20244;-94
2023/06/13 03:26:39;;;;;;;4.13;2.80;;;24.70;99.90;;;;;;4956318;28;20279;-93
2023/06/13 03:29:12;;;;;;;4.13;2.43;;;24.60;99.90;;;;;;4931123;29;20217;-94
2023/06/13 03:31:46;;;;;;;1.97;1.77;;;24.50;99.90;;;;;;4940499;29;20231;-94
2023/06/13 03:34:18;;;;;;;3.87;2.10;;;24.40;99.90;;;;;;4942799;29;20231;-94
2023/06/13 03:36:50;;;;;;;3.00;1.90;;;24.30;99.90;;;;;;4938646;29;20217;-91
2023/06/13 03:39:24;;;;;;;9.10;2.20;;;24.20;99.90;;;;;;4932905;29;20224;-91
2023/06/13 03:41:55;;;;;;;4.90;2.13;;;24.10;99.90;;;;;;4937410;29;20227;-91
2023/06/13 03:47:14;;;;;;;5.37;2.07;;;23.80;99.90;;;;;;4941510;29;20292;-94
2023/06/13 03:49:45;;;;;;;4.90;2.37;;;23.70;99.90;;;;;;4933316;29;20208;-95
2023/06/13 03:52:17;;;;;;;3.80;2.10;;;23.60;99.90;;;;;;4938878;29;20276;-93
2023/06/13 03:54:51;;;;;;;3.07;1.97;;;23.50;99.90;;;;;;4950281;29;20219;-92
2023/06/13 03:57:22;;;;;;;2.90;2.13;;;23.40;99.90;;;;;;4951396;29;20208;-94
2023/06/13 03:59:55;;;;;;;2.97;1.90;;;23.30;99.90;;;;;;4933681;29;20637;-86
2023/06/13 04:02:29;;;;;;;3.03;2.13;;;23.10;99.90;;;;;;4937647;29;20220;-90
2023/06/13 04:05:03;;;;;;;2.57;2.37;;;23.10;99.90;;;;;;4937428;29;20235;-90
2023/06/13 04:07:35;;;;;;;3.93;2.37;;;23.00;99.90;;;;;;4939655;29;20240;-90
2023/06/13 04:10:06;;;;;;;3.63;2.37;;;22.90;99.90;;;;;;4932894;29;20264;-90
2023/06/13 04:12:38;;;;;;;3.50;2.37;;;22.80;99.90;;;;;;4938463;29;20307;-90
2023/06/13 04:15:10;;;;;;;6.90;2.30;;;22.70;99.90;;;;;;4938567;29;20227;-91
2023/06/13 04:17:44;;;;;;;2.83;2.13;;;22.60;99.90;;;;;;4948970;29;20209;-91
2023/06/13 04:20:20;;;;;;;4.03;2.20;;;22.50;99.90;;;;;;4951598;29;20196;-91
2023/06/13 04:22:52;;;;;;;3.90;2.40;;;22.50;99.90;;;;;;4951237;29;20276;-90
2023/06/13 04:25:24;;;;;;;2.67;2.13;;;22.30;99.90;;;;;;4932743;29;20243;-90
2023/06/13 04:27:57;;;;;;;3.00;2.17;;;22.30;99.90;;;;;;4933794;29;20676;-90
2023/06/13 04:30:30;;;;;;;3.73;2.13;;;22.10;99.90;;;;;;4939950;29;20291;-90
2023/06/13 04:33:06;;;;;;;5.13;2.33;;;22.00;99.90;;;;;;4937688;29;20235;-89
2023/06/13 04:35:37;;;;;;;6.50;2.33;;;22.00;99.90;;;;;;4935123;29;20306;-89
2023/06/13 04:38:09;;;;;;;4.00;2.43;;;21.90;99.90;;;;;;4936363;29;20212;-89
2023/06/13 04:40:40;;;;;;;6.57;2.30;;;21.80;99.90;;;;;;4937044;29;20208;-89
2023/06/13 04:43:14;;;;;;;3.83;2.60;;;21.70;99.90;;;;;;4936659;29;20226;-89
2023/06/13 04:45:46;;;;;;;3.50;2.27;;;21.60;99.90;;;;;;4935486;29;20218;-88
2023/06/13 04:48:25;;;;;;;4.47;2.33;;;21.60;99.90;;;;;;4932018;29;20241;-89
2023/06/13 04:50:56;;;;;;;4.60;2.27;;;21.60;99.90;;;;;;4935919;29;20223;-89
2023/06/13 04:53:29;;;;;;;4.67;2.90;;;21.50;99.90;;;;;;4928202;29;20260;-88
2023/06/13 04:56:00;;;;;;;4.00;2.37;;;21.40;99.90;;;;;;4938533;29;20229;-89
2023/06/13 04:58:33;;;;;;;2.67;2.10;;;21.40;99.90;;;;;;4930161;29;20213;-88
2023/06/13 05:01:04;;;;;;;5.33;2.43;;;21.30;99.90;;;;;;4940503;29;20247;-89
2023/06/13 05:03:37;;;;;;;3.93;2.20;;;21.20;99.90;;;;;;4929809;29;20217;-89
2023/06/13 05:06:12;;;;;;;4.17;2.70;;;21.10;99.90;;;;;;4940757;29;20200;-89
2023/06/13 05:08:43;;;;;;;4.73;2.20;;;21.10;99.90;;;;;;4940218;29;20233;-89
2023/06/13 05:11:15;;;;;;;11.67;4.97;;;21.10;99.90;;;;;;4952925;29;20576;-88
2023/06/13 05:13:46;;;;;;;40.77;18.37;;;21.00;99.90;;;;;;4955072;29;20263;-89
2023/06/13 05:16:18;;;;;;;17.23;8.83;;;21.00;99.90;;;;;;4612675;28;10000549;-89
2023/06/13 05:18:57;;;;;;;17.07;8.37;;;21.00;99.90;;;;;;4935149;29;20204;-87
2023/06/13 05:21:31;;;;;;;4.90;2.80;;;21.00;99.90;;;;;;4940270;29;20279;-89
2023/06/13 05:24:03;;;;;;;6.50;2.60;;;20.90;99.90;;;;;;4944443;29;20236;-90
2023/06/13 05:26:35;;;;;;;3.13;2.37;;;20.80;99.90;;;;;;4938955;29;20252;-89
2023/06/13 05:29:09;;;;;;;5.00;2.43;;;20.70;99.90;;;;;;4934212;29;20284;-89
2023/06/13 05:31:41;;;;;;;3.37;2.93;;;20.70;99.90;;;;;;4931908;29;20204;-90
2023/06/13 05:34:14;;;;;;;5.67;2.30;;;20.60;99.90;;;;;;4937326;29;20209;-88
2023/06/13 05:36:45;;;;;;;5.20;2.57;;;20.50;99.90;;;;;;4931942;29;20205;-87
2023/06/13 05:39:18;;;;;;;6.27;2.53;;;20.40;99.90;;;;;;4941251;29;20259;-89
2023/06/13 05:41:50;;;;;;;3.23;2.43;;;20.30;99.90;;;;;;4931279;29;20796;-89
2023/06/13 05:44:21;;;;;;;4.00;2.30;;;20.30;99.90;;;;;;4928034;29;20228;-88
2023/06/13 05:46:56;;;;;;;3.07;2.13;;;20.20;99.90;;;;;;4939663;29;20235;-89
2023/06/13 05:49:30;;;;;;;2.40;2.20;;;20.10;99.90;;;;;;4941643;29;20610;-90
2023/06/13 05:52:01;;;;;;;4.77;2.37;;;20.10;99.90;;;;;;4940101;29;20208;-89
2023/06/13 05:54:33;;;;;;;3.43;2.00;;;20.00;99.90;;;;;;4939569;29;20227;-90
2023/06/13 05:57:05;;;;;;;4.10;2.47;;;20.00;99.90;;;;;;4937576;29;20217;-90
2023/06/13 05:59:36;;;;;;;3.83;2.10;;;20.00;99.90;;;;;;4935825;29;20259;-90
2023/06/13 06:02:10;;;;;;;2.27;2.03;;;20.00;99.90;;;;;;4928388;29;20573;-90
2023/06/13 06:04:44;;;;;;;3.30;2.20;;;19.90;99.90;;;;;;4929845;29;20281;-90
2023/06/13 06:07:15;;;;;;;4.13;2.40;;;19.80;99.90;;;;;;4929518;29;20256;-89
2023/06/13 06:09:47;;;;;;;3.17;2.30;;;19.80;99.90;;;;;;4936248;29;20316;-89
2023/06/13 06:12:19;;;;;;;8.90;3.00;;;19.70;99.90;;;;;;4926018;29;20205;-89
2023/06/13 06:14:51;;;;;;;5.13;2.97;;;19.60;99.90;;;;;;4933676;29;20212;-89
2023/06/13 06:17:23;;;;;;;4.13;2.43;;;19.60;99.90;;;;;;4939500;29;20268;-89
2023/06/13 06:19:56;;;;;;;4.00;2.37;;;19.50;99.90;;;;;;4932432;29;20209;-89
2023/06/13 06:22:27;;;;;;;2.97;2.20;;;19.40;99.90;;;;;;4936923;29;20208;-89
2023/06/13 06:24:58;;;;;;;2.83;2.00;;;19.40;99.90;;;;;;4937451;29;20247;-88
2023/06/13 06:27:30;;;;;;;3.87;2.30;;;19.40;99.90;;;;;;4936258;29;20216;-89
2023/06/13 06:30:02;;;;;;;2.60;2.13;;;19.30;99.90;;;;;;4932256;29;20582;-90
2023/06/13 06:32:35;;;;;;;4.63;3.17;;;19.30;99.90;;;;;;4927683;29;20217;-89
2023/06/13 06:35:09;;;;;;;5.60;3.57;;;19.20;99.90;;;;;;4928271;29;20208;-89
2023/06/13 06:37:40;;;;;;;3.90;2.63;;;19.10;99.90;;;;;;4930967;29;20212;-89
2023/06/13 06:40:13;;;;;;;5.20;2.80;;;19.20;99.90;;;;;;4921136;29;20213;-88
2023/06/13 06:42:46;;;;;;;4.00;2.53;;;19.10;99.90;;;;;;4930746;29;20223;-88
2023/06/13 06:45:17;;;;;;;2.97;2.20;;;19.10;99.90;;;;;;4927559;29;20236;-89
2023/06/13 06:47:48;;;;;;;5.33;2.53;;;19.00;99.90;;;;;;4929821;29;20205;-90
2023/06/13 06:50:22;;;;;;;3.30;2.50;;;19.00;99.90;;;;;;4927156;29;20216;-89
2023/06/13 06:52:54;;;;;;;3.93;2.33;;;18.90;99.90;;;;;;4926811;29;20263;-91
2023/06/13 06:55:26;;;;;;;5.27;2.73;;;18.90;99.90;;;;;;4930724;29;20649;-89
2023/06/13 06:57:58;;;;;;;5.77;2.70;;;18.80;99.90;;;;;;4927728;29;20268;-89
2023/06/13 07:00:30;;;;;;;3.60;2.30;;;18.80;99.90;;;;;;4937880;29;20208;-89
2023/06/13 07:03:02;;;;;;;5.20;2.63;;;18.70;99.90;;;;;;4919779;29;20305;-89
2023/06/13 07:05:35;;;;;;;3.17;2.40;;;18.70;99.90;;;;;;4929777;29;20307;-89
2023/06/13 07:08:07;;;;;;;5.00;2.57;;;18.70;99.90;;;;;;4936983;29;20275;-88
2023/06/13 07:10:39;;;;;;;3.47;2.30;;;18.60;99.90;;;;;;4932013;29;20304;-90
2023/06/13 07:13:12;;;;;;;4.00;2.40;;;18.60;99.90;;;;;;4936130;29;20604;-89
2023/06/13 07:15:44;;;;;;;2.80;2.50;;;18.60;99.90;;;;;;4930440;29;20721;-89
2023/06/13 07:18:15;;;;;;;3.40;2.57;;;18.50;99.90;;;;;;4934135;29;20211;-89
2023/06/13 07:20:49;;;;;;;7.80;2.53;;;18.50;99.90;;;;;;4934391;29;20287;-88
2023/06/13 07:23:21;;;;;;;3.93;2.27;;;18.50;99.90;;;;;;4942414;29;20203;-87
2023/06/13 07:25:53;;;;;;;4.07;2.47;;;18.40;99.90;;;;;;4946468;29;20263;-89
2023/06/13 07:28:26;;;;;;;4.40;2.67;;;18.40;99.90;;;;;;4953046;29;20212;-89
2023/06/13 07:30:58;;;;;;;4.33;2.47;;;18.40;99.90;;;;;;4941465;29;20224;-89
2023/06/13 07:33:30;;;;;;;4.43;2.43;;;18.40;99.90;;;;;;4950267;29;20200;-88
2023/06/13 07:36:03;;;;;;;2.80;2.50;;;18.40;99.90;;;;;;4938316;29;20299;-89
2023/06/13 07:38:34;;;;;;;3.70;2.57;;;18.40;99.90;;;;;;4929468;29;20204;-89
2023/06/13 07:41:06;;;;;;;5.73;2.60;;;18.50;99.90;;;;;;4938594;29;20219;-89
2023/06/13 07:43:37;;;;;;;5.23;2.10;;;18.40;99.90;;;;;;4933791;29;20308;-88
2023/06/13 07:46:09;;;;;;;2.90;2.43;;;18.40;99.90;;;;;;4937258;29;20322;-88
2023/06/13 07:48:41;;;;;;;4.50;2.43;;;18.40;99.90;;;;;;4937488;29;20635;-89
2023/06/13 07:51:15;;;;;;;4.33;3.00;;;18.40;99.90;;;;;;4937966;29;20319;-89
2023/06/13 07:53:46;;;;;;;5.13;3.13;;;18.40;99.90;;;;;;4937494;29;20204;-89
2023/06/13 07:56:18;;;;;;;4.10;2.87;;;18.40;99.90;;;;;;4937873;29;20208;-89
2023/06/13 07:58:49;;;;;;;5.30;2.87;;;18.40;99.90;;;;;;4937066;29;20235;-89
2023/06/13 08:01:22;;;;;;;4.17;2.70;;;18.40;99.90;;;;;;4937139;29;20200;-90
2023/06/13 08:03:53;;;;;;;3.43;2.30;;;18.30;99.90;;;;;;4937205;28;20216;-90
2023/06/13 08:06:28;;;;;;;6.33;3.10;;;18.30;99.90;;;;;;4937648;29;20236;-89
2023/06/13 08:08:59;;;;;;;5.87;2.90;;;18.30;99.90;;;;;;4937404;29;20581;-90
2023/06/13 08:11:30;;;;;;;3.83;2.60;;;18.30;99.90;;;;;;4945839;29;20216;-90
2023/06/13 08:14:02;;;;;;;5.10;3.20;;;18.20;99.90;;;;;;4956733;28;20294;-89
2023/06/13 08:16:33;;;;;;;3.10;2.53;;;18.10;99.90;;;;;;4941890;28;20335;-90
2023/06/13 08:19:05;;;;;;;5.43;2.63;;;18.00;99.90;;;;;;4937774;28;20235;-89
2023/06/13 08:21:40;;;;;;;3.30;2.60;;;17.90;99.90;;;;;;4937045;29;20243;-89
2023/06/13 08:24:12;;;;;;;4.00;2.80;;;17.90;99.90;;;;;;4932698;29;20805;-89
2023/06/13 08:26:44;;;;;;;4.40;2.77;;;17.90;99.90;;;;;;4935549;29;20232;-89
2023/06/13 08:29:17;;;;;;;5.17;3.27;;;17.80;99.90;;;;;;4935840;29;20272;-90
2023/06/13 08:31:48;;;;;;;6.23;3.20;;;17.80;99.90;;;;;;4925318;29;20213;-89
2023/06/13 08:34:20;;;;;;;4.87;2.93;;;17.80;99.90;;;;;;4933358;29;20208;-89
2023/06/13 08:36:53;;;;;;;3.13;2.80;;;17.70;99.90;;;;;;4933130;29;20291;-89
2023/06/13 08:39:25;;;;;;;4.03;3.10;;;17.70;99.90;;;;;;4938292;29;20288;-90
2023/06/13 08:41:58;;;;;;;4.83;3.60;;;17.60;99.90;;;;;;4931252;29;20291;-89
2023/06/13 08:44:30;;;;;;;3.90;3.20;;;17.60;99.90;;;;;;4921486;29;20641;-89
2023/06/13 08:47:02;;;;;;;4.43;3.03;;;17.50;99.90;;;;;;4930448;29;20244;-89
2023/06/13 08:49:33;;;;;;;4.80;3.77;;;17.50;99.90;;;;;;4939716;29;20268;-88
2023/06/13 08:52:11;;;;;;;7.00;3.50;;;17.50;99.90;;;;;;4940309;29;20227;-89
2023/06/13 08:54:46;;;;;;;6.10;3.40;;;17.40;99.90;;;;;;4941017;29;20212;-90
2023/06/13 08:57:40;;;;;;;7.47;3.43;;;17.40;99.90;;;;;;4937215;29;20267;-89
2023/06/13 09:00:15;;;;;;;4.57;3.17;;;17.40;99.90;;;;;;4940971;29;20554;-89
2023/06/13 09:02:47;;;;;;;5.97;3.10;;;17.30;99.90;;;;;;4934107;29;20230;-90
2023/06/13 09:05:19;;;;;;;6.47;3.60;;;17.30;99.90;;;;;;4935208;29;20219;-87
2023/06/13 09:07:54;;;;;;;5.50;3.30;;;17.30;99.90;;;;;;4937557;29;20243;-90
2023/06/13 09:10:42;;;;;;;4.50;3.40;;;17.30;99.90;;;;;;4940710;29;20356;-90
2023/06/13 09:13:15;;;;;;;4.60;3.30;;;17.30;99.90;;;;;;4935947;29;20215;-90
2023/06/13 09:15:48;;;;;;;7.17;3.43;;;17.20;99.90;;;;;;4939847;29;20215;-89
2023/06/13 09:18:21;;;;;;;4.63;3.70;;;17.20;99.90;;;;;;4936606;29;20593;-90
2023/06/13 09:20:54;;;;;;;6.53;3.50;;;17.10;99.90;;;;;;4940261;29;21879;-90
2023/06/13 09:23:29;;;;;;;4.80;3.47;;;17.10;99.90;;;;;;4923516;29;20581;-90
2023/06/13 09:26:02;;;;;;;4.43;3.53;;;17.10;99.90;;;;;;4921673;29;20205;-89
2023/06/13 09:28:34;;;;;;;7.60;3.50;;;17.10;99.90;;;;;;4922502;29;20256;-90
2023/06/13 09:31:06;;;;;;;5.03;3.70;;;17.10;99.90;;;;;;4937457;29;20279;-89
2023/06/13 09:33:38;;;;;;;9.30;4.00;;;17.10;99.90;;;;;;4948467;28;20357;-89
2023/06/13 09:36:09;;;;;;;11.50;4.20;;;17.20;99.90;;;;;;4938217;29;20209;-89
2023/06/13 09:38:43;;;;;;;10.03;4.40;;;17.40;99.90;;;;;;4953780;29;20213;-88
2023/06/13 09:41:15;;;;;;;9.00;4.53;;;17.50;99.90;;;;;;4957783;29;20208;-89
2023/06/13 09:43:47;;;;;;;9.40;3.97;;;17.50;99.90;;;;;;4955048;29;20308;-90
2023/06/13 09:46:19;;;;;;;11.37;4.67;;;17.50;99.90;;;;;;4941845;29;20235;-90
2023/06/13 09:48:52;;;;;;;12.00;4.70;;;17.50;99.90;;;;;;4941115;29;20300;-88
2023/06/13 09:51:23;;;;;;;12.07;5.23;;;17.50;99.90;;;;;;4931279;29;20295;-89
2023/06/13 09:53:57;;;;;;;7.97;4.63;;;17.40;99.90;;;;;;4940303;29;20721;-90
2023/06/13 09:56:28;;;;;;;12.77;4.90;;;17.40;99.90;;;;;;4939089;29;20220;-89
2023/06/13 09:59:00;;;;;;;11.97;5.00;;;17.40;99.90;;;;;;4938426;29;20232;-88
2023/06/13 10:01:34;;;;;;;9.33;4.60;;;17.40;99.90;;;;;;4931125;29;20205;-90
2023/06/13 10:04:07;;;;;;;11.87;5.37;;;17.40;99.90;;;;;;4939576;29;20218;-89
2023/06/13 10:06:38;;;;;;;15.13;5.20;;;17.40;99.90;;;;;;4936434;29;20318;-90
2023/06/13 10:09:13;;;;;;;12.90;4.73;;;17.30;99.90;;;;;;4939923;29;20213;-90
2023/06/13 10:11:52;;;;;;;16.63;5.30;;;17.40;99.90;;;;;;4938301;29;20212;-89
2023/06/13 10:14:25;;;;;;;13.60;5.07;;;17.40;99.90;;;;;;4921542;29;20217;-89
2023/06/13 10:17:01;;;;;;;12.57;4.93;;;17.30;99.90;;;;;;4931392;29;20206;-90
2023/06/13 10:19:40;;;;;;;14.93;6.73;;;17.30;99.90;;;;;;4934637;29;20205;-89
2023/06/13 10:22:12;;;;;;;18.10;5.67;;;17.30;99.90;;;;;;4932368;29;20565;-89
2023/06/13 10:24:46;;;;;;;18.80;6.03;;;17.20;99.90;;;;;;4939559;29;20291;-89
2023/06/13 10:27:19;;;;;;;15.50;5.47;;;17.20;99.90;;;;;;4938579;29;20231;-89
2023/06/13 10:30:11;;;;;;;15.10;5.83;;;17.20;99.90;;;;;;4935024;29;20215;-90
2023/06/13 10:33:00;;;;;;;21.70;6.00;;;17.10;99.90;;;;;;4938492;29;20220;-89
2023/06/13 10:36:02;;;;;;;17.90;6.53;;;17.10;99.90;;;;;;4938614;29;20236;-89
2023/06/13 10:39:03;;;;;;;20.03;5.83;;;17.00;99.90;;;;;;4918824;29;20599;-88
2023/06/13 10:41:59;;;;;;;17.53;5.70;;;17.00;99.90;;;;;;4933317;29;20216;-89
2023/06/13 10:44:39;;;;;;;16.00;6.23;;;16.90;99.90;;;;;;4933772;29;20237;-89
2023/06/13 10:47:10;;;;;;;20.40;7.23;;;16.80;99.90;;;;;;4923151;29;20242;-89
2023/06/13 10:49:42;;;;;;;17.70;5.73;;;16.80;99.90;;;;;;4937109;29;20209;-88
2023/06/13 10:52:15;;;;;;;16.50;6.27;;;16.80;99.90;;;;;;4926417;29;20654;-89
2023/06/13 10:54:53;;;;;;;15.63;5.97;;;16.80;99.90;;;;;;4931935;29;20601;-89
2023/06/13 10:57:49;;;;;;;20.20;6.00;;;16.70;99.90;;;;;;4919603;29;20212;-89
2023/06/13 11:00:28;;;;;;;19.40;6.00;;;16.60;99.90;;;;;;4936124;29;20208;-89
2023/06/13 11:03:06;;;;;;;22.07;6.10;;;16.50;99.90;;;;;;4925053;29;20200;-89
2023/06/13 11:05:39;;;;;;;15.00;4.93;;;16.40;99.90;;;;;;4935282;29;20201;-88
2023/06/13 11:08:18;;;;;;;19.67;6.57;;;16.40;99.90;;;;;;4932336;29;20309;-89
2023/06/13 11:10:51;;;;;;;23.80;6.10;;;16.40;99.90;;;;;;4921696;29;20271;-89
2023/06/13 11:13:26;;;;;;;15.90;5.87;;;16.30;99.90;;;;;;4928953;29;20235;-89
2023/06/13 11:15:59;;;;;;;17.17;6.20;;;16.30;99.90;;;;;;4929786;29;20213;-90
2023/06/13 11:18:35;;;;;;;21.40;5.87;;;16.20;99.90;;;;;;4935563;29;20215;-89
2023/06/13 11:21:08;;;;;;;25.57;7.07;;;16.20;99.90;;;;;;4937529;29;20282;-90
2023/06/13 11:23:50;;;;;;;16.47;6.03;;;16.10;99.90;;;;;;4938006;29;20263;-89
2023/06/13 11:26:22;;;;;;;14.83;5.93;;;16.10;99.90;;;;;;4937634;29;20278;-90
2023/06/13 11:28:56;;;;;;;18.10;6.20;;;16.00;99.90;;;;;;4937291;29;20586;-90
2023/06/13 11:31:30;;;;;;;16.70;6.50;;;16.00;99.90;;;;;;4938352;29;20204;-90
2023/06/13 11:34:05;;;;;;;19.63;6.30;;;15.90;99.90;;;;;;4937682;29;20208;-89
2023/06/13 11:36:43;;;;;;;18.07;6.07;;;15.80;99.90;;;;;;4938153;29;20226;-90
2023/06/13 11:39:18;;;;;;;19.30;6.43;;;15.80;99.90;;;;;;4937812;29;20242;-89
2023/06/13 11:41:51;;;;;;;18.73;5.20;;;15.70;99.90;;;;;;4937938;29;20744;-90
2023/06/13 11:44:24;;;;;;;21.00;5.87;;;15.60;99.90;;;;;;4926840;29;20644;-89
2023/06/13 11:46:56;;;;;;;21.10;5.83;;;15.60;99.90;;;;;;4917896;29;20201;-89
2023/06/13 11:49:27;;;;;;;20.13;5.77;;;15.60;99.90;;;;;;4923403;29;20209;-90
2023/06/13 11:51:59;;;;;;;17.27;5.20;;;15.60;99.90;;;;;;4937635;29;20299;-88
2023/06/13 11:54:31;;;;;;;21.30;5.27;;;15.50;99.90;;;;;;4937879;29;20216;-89
2023/06/13 11:57:02;;;;;;;18.50;6.10;;;15.40;99.90;;;;;;4920500;29;20237;-90
2023/06/13 11:59:36;;;;;;;16.93;5.70;;;15.40;99.90;;;;;;4943186;29;20231;-89
2023/06/13 12:02:09;;;;;;;14.37;5.30;;;15.40;99.90;;;;;;4946743;29;20218;-87
2023/06/13 12:04:43;;;;;;;19.53;5.23;;;15.40;99.90;;;;;;4932321;29;20215;-89
2023/06/13 12:07:21;;;;;;;18.27;5.43;;;15.20;99.90;;;;;;4940888;29;20263;-87
2023/06/13 12:09:54;;;;;;;16.70;5.43;;;15.20;99.90;;;;;;4943605;29;20203;-89
2023/06/13 12:12:25;;;;;;;13.40;5.03;;;15.00;99.90;;;;;;4936910;28;20284;-90
2023/06/13 12:15:00;;;;;;;18.07;5.80;;;14.90;99.90;;;;;;4923904;29;20291;-90
2023/06/13 12:17:32;;;;;;;18.63;5.43;;;14.80;99.90;;;;;;4937920;29;20207;-88
2023/06/13 12:20:11;;;;;;;14.83;5.27;;;14.70;99.90;;;;;;4936080;29;20580;-90
2023/06/13 12:22:43;;;;;;;17.63;4.83;;;14.70;99.90;;;;;;4936295;29;20204;-90
2023/06/13 12:25:15;;;;;;;22.00;5.57;;;14.60;99.90;;;;;;4937193;29;20208;-88
2023/06/13 12:27:51;;;;;;;15.43;5.23;;;14.60;99.90;;;;;;4929650;29;20293;-90
2023/06/13 12:30:25;;;;;;;17.60;5.33;;;14.60;99.90;;;;;;4929681;29;20212;-89
2023/06/13 12:32:57;;;;;;;15.80;5.63;;;14.60;99.90;;;;;;4933030;29;20204;-90
2023/06/13 12:35:30;;;;;;;20.90;5.33;;;14.50;99.90;;;;;;4936741;29;20236;-89
2023/06/13 12:38:03;;;;;;;16.93;5.30;;;14.60;99.90;;;;;;4952844;29;20656;-89
2023/06/13 12:40:35;;;;;;;18.90;5.27;;;14.50;99.90;;;;;;4946249;28;20239;-90
2023/06/13 12:43:08;;;;;;;17.73;5.60;;;14.40;99.90;;;;;;4937155;29;20232;-90
2023/06/13 12:45:44;;;;;;;15.43;5.30;;;14.40;99.90;;;;;;4928289;29;20227;-90
2023/06/13 12:48:20;;;;;;;17.43;5.43;;;14.40;99.90;;;;;;4936093;29;20227;-88
2023/06/13 12:50:52;;;;;;;22.57;5.80;;;14.30;99.90;;;;;;4932098;29;20223;-90
2023/06/13 12:53:24;;;;;;;17.60;5.10;;;14.30;99.90;;;;;;4937127;29;20255;-89
2023/06/13 12:55:56;;;;;;;18.03;4.90;;;14.30;99.90;;;;;;4937374;29;20208;-89
2023/06/13 12:58:34;;;;;;;16.17;5.03;;;14.30;99.90;;;;;;4935341;29;20212;-89
2023/06/13 13:01:10;;;;;;;16.60;5.17;;;14.40;99.90;;;;;;4936298;29;20295;-89
2023/06/13 13:03:42;;;;;;;19.60;5.77;;;14.40;99.90;;;;;;4936141;29;20227;-88
2023/06/13 13:06:13;;;;;;;19.23;5.50;;;14.40;99.90;;;;;;4934309;29;20260;-88
2023/06/13 13:08:44;;;;;;;13.93;5.00;;;14.50;99.90;;;;;;4940634;29;20322;-90
2023/06/13 13:11:15;;;;;;;18.53;5.60;;;14.40;99.90;;;;;;4935412;29;20216;-90
2023/06/13 13:13:46;;;;;;;15.27;5.67;;;14.30;99.90;;;;;;4917133;29;20240;-90
2023/06/13 13:16:21;;;;;;;15.63;4.80;;;14.30;99.90;;;;;;4931069;29;20220;-91
2023/06/13 13:18:53;;;;;;;19.60;5.60;;;14.20;99.90;;;;;;4932952;29;20241;-90